createdAt,value
2019-03-15T00:01:58.945Z,94610.50
2019-03-15T00:04:27.289Z,94612.34
2019-03-15T00:06:55.628Z,94615.07
2019-03-15T00:09:23.968Z,94611.31
2019-03-15T00:11:52.439Z,94626.47
2019-03-15T00:14:20.803Z,94623.53
2019-03-15T00:19:23.336Z,94650.17
2019-03-15T00:21:53.587Z,94635.39
2019-03-15T00:26:56.173Z,94642.58
2019-03-15T00:32:01.798Z,94642.19
2019-03-15T00:34:30.132Z,94645.17
2019-03-15T00:36:58.467Z,94641.97
2019-03-15T00:39:26.830Z,94650.16
2019-03-15T00:41:55.199Z,94648.39
2019-03-15T00:44:26.985Z,94646.73
2019-03-15T00:49:29.552Z,94668.80
2019-03-15T00:51:58.868Z,94666.27
2019-03-15T00:54:27.214Z,94666.72
2019-03-15T00:56:55.535Z,94673.16
2019-03-15T00:59:23.887Z,94667.25
2019-03-15T01:04:26.497Z,94669.52
2019-03-15T01:06:54.848Z,94664.88
2019-03-15T01:09:23.176Z,94677.23
2019-03-15T01:11:52.472Z,94680.13
2019-03-15T01:14:20.828Z,94681.25
2019-03-15T01:16:49.224Z,94667.23
2019-03-15T01:19:17.586Z,94679.65
2019-03-15T01:21:45.917Z,94679.07
2019-03-15T01:24:14.685Z,94666.37
2019-03-15T01:26:44.121Z,94679.44
2019-03-15T01:29:12.496Z,94677.44
2019-03-15T01:31:40.874Z,94679.95
2019-03-15T01:34:10.196Z,94684.30
2019-03-15T01:36:38.525Z,94682.19
2019-03-15T01:39:06.969Z,94693.06
2019-03-15T01:41:35.319Z,94699.48
2019-03-15T01:44:04.549Z,94697.44
2019-03-15T01:46:33.658Z,94706.55
2019-03-15T01:51:35.527Z,94702.36
2019-03-15T01:54:03.868Z,94716.05
2019-03-15T01:56:32.202Z,94714.87
2019-03-15T01:59:00.548Z,94711.35
2019-03-15T02:01:28.890Z,94717.44
2019-03-15T02:03:57.239Z,94712.83
2019-03-15T02:06:25.626Z,94715.84
2019-03-15T02:08:55.174Z,94714.52
2019-03-15T02:11:23.516Z,94706.14
2019-03-15T02:13:51.856Z,94705.87
2019-03-15T02:16:20.196Z,94702.73
2019-03-15T02:21:23.656Z,94705.97
2019-03-15T02:26:27.224Z,94714.22
2019-03-15T02:28:56.515Z,94714.00
2019-03-15T02:31:25.009Z,94725.13
2019-03-15T02:33:54.263Z,94724.00
2019-03-15T02:36:22.613Z,94735.83
2019-03-15T02:38:52.001Z,94737.48
2019-03-15T02:41:20.444Z,94735.63
2019-03-15T02:43:48.805Z,94733.87
2019-03-15T02:46:17.194Z,94731.00
2019-03-15T02:51:19.901Z,94733.28
2019-03-15T02:53:51.709Z,94733.97
2019-03-15T02:56:20.047Z,94727.55
2019-03-15T02:58:48.376Z,94734.29
2019-03-15T03:01:16.725Z,94738.30
2019-03-15T03:03:45.160Z,94738.09
2019-03-15T03:08:49.684Z,94745.80
2019-03-15T03:11:18.050Z,94753.81
2019-03-15T03:13:46.348Z,94757.22
2019-03-15T03:16:14.699Z,94763.75
2019-03-15T03:21:18.275Z,94781.23
2019-03-15T03:23:52.161Z,94771.64
2019-03-15T03:26:20.501Z,94775.65
2019-03-15T03:28:54.050Z,94771.75
2019-03-15T03:31:21.061Z,94769.86
2019-03-15T03:33:51.321Z,94773.59
2019-03-15T03:36:19.690Z,94785.71
2019-03-15T03:41:23.482Z,94778.25
2019-03-15T03:43:51.820Z,94781.97
2019-03-15T03:46:20.160Z,94789.91
2019-03-15T03:48:49.453Z,94783.66
2019-03-15T03:51:17.810Z,94779.37
2019-03-15T03:53:46.120Z,94782.35
2019-03-15T03:56:15.398Z,94790.58
2019-03-15T03:58:43.754Z,94786.33
2019-03-15T04:01:16.445Z,94799.53
2019-03-15T04:03:44.857Z,94809.39
2019-03-15T04:06:14.088Z,94797.36
2019-03-15T04:08:43.336Z,94794.32
2019-03-15T04:11:11.665Z,94788.20
2019-03-15T04:13:40.013Z,94802.14
2019-03-15T04:18:46.506Z,94809.25
2019-03-15T04:21:15.783Z,94808.27
2019-03-15T04:23:44.123Z,94797.20
2019-03-15T04:26:12.448Z,94794.89
2019-03-15T04:28:40.797Z,94807.10
2019-03-15T04:31:13.055Z,94810.44
2019-03-15T04:33:41.389Z,94812.05
2019-03-15T04:36:09.731Z,94824.16
2019-03-15T04:38:38.082Z,94816.92
2019-03-15T04:41:06.564Z,94822.27
2019-03-15T04:43:35.943Z,94827.50
2019-03-15T04:46:04.293Z,94829.31
2019-03-15T04:48:32.660Z,94815.14
2019-03-15T04:51:00.970Z,94818.37
2019-03-15T04:53:30.322Z,94804.27
2019-03-15T04:56:03.717Z,94816.70
2019-03-15T04:58:33.004Z,94816.86
2019-03-15T05:01:01.405Z,94828.36
2019-03-15T05:03:29.719Z,94832.05
2019-03-15T05:06:03.503Z,94828.31
2019-03-15T05:08:26.429Z,94829.27
2019-03-15T05:10:55.737Z,94828.72
2019-03-15T05:13:24.972Z,94836.99
2019-03-15T05:15:54.244Z,94839.59
2019-03-15T05:18:22.586Z,94834.65
2019-03-15T05:20:50.983Z,94839.27
2019-03-15T05:23:20.323Z,94845.66
2019-03-15T05:25:48.672Z,94841.45
2019-03-15T05:30:51.331Z,94845.83
2019-03-15T05:33:20.324Z,94837.11
2019-03-15T05:35:48.661Z,94831.14
2019-03-15T05:40:54.273Z,94831.67
2019-03-15T05:43:22.611Z,94839.72
2019-03-15T05:45:50.968Z,94836.17
2019-03-15T05:48:19.707Z,94829.73
2019-03-15T05:50:48.036Z,94837.62
2019-03-15T05:53:17.306Z,94829.91
2019-03-15T05:55:45.795Z,94825.37
2019-03-15T05:58:14.145Z,94817.59
2019-03-15T06:00:42.508Z,94821.03
2019-03-15T06:03:12.720Z,94822.82
2019-03-15T06:05:40.156Z,94829.25
2019-03-15T06:08:08.512Z,94819.54
2019-03-15T06:10:36.864Z,94828.02
2019-03-15T06:13:05.228Z,94829.71
2019-03-15T06:15:33.591Z,94828.78
2019-03-15T06:18:01.972Z,94819.56
2019-03-15T06:20:30.289Z,94827.31
2019-03-15T06:22:58.628Z,94828.14
2019-03-15T06:25:26.975Z,94820.91
2019-03-15T06:27:55.313Z,94815.07
2019-03-15T06:30:24.552Z,94818.14
2019-03-15T06:32:52.900Z,94832.70
2019-03-15T06:35:22.184Z,94824.38
2019-03-15T06:37:50.510Z,94834.62
2019-03-15T06:40:18.876Z,94847.02
2019-03-15T06:42:47.207Z,94851.84
2019-03-15T06:45:16.539Z,94853.52
2019-03-15T06:47:44.961Z,94848.63
2019-03-15T06:50:14.231Z,94847.87
2019-03-15T06:52:42.565Z,94857.67
2019-03-15T06:57:45.217Z,94849.27
2019-03-15T07:00:13.548Z,94856.83
2019-03-15T07:05:20.660Z,94856.56
2019-03-15T07:07:48.507Z,94842.45
2019-03-15T07:10:26.671Z,94838.20
2019-03-15T07:12:55.018Z,94837.74
2019-03-15T07:15:27.532Z,94834.19
2019-03-15T07:17:56.798Z,94846.17
2019-03-15T07:20:25.159Z,94837.61
2019-03-15T07:22:53.521Z,94843.08
2019-03-15T07:27:58.309Z,94850.09
2019-03-15T07:30:30.788Z,94844.06
2019-03-15T07:33:01.032Z,94848.37
2019-03-15T07:35:43.867Z,94856.20
2019-03-15T07:40:48.458Z,94847.92
2019-03-15T07:43:40.280Z,94854.34
2019-03-15T07:46:11.854Z,94852.91
2019-03-15T07:48:42.107Z,94860.38
2019-03-15T07:53:47.647Z,94866.30
2019-03-15T07:56:21.360Z,94871.05
2019-03-15T07:59:04.502Z,94865.79
2019-03-15T08:01:40.434Z,94884.22
2019-03-15T08:04:16.687Z,94883.73
2019-03-15T08:06:43.838Z,94884.05
2019-03-15T08:09:12.316Z,94893.01
2019-03-15T08:11:54.046Z,94890.39
2019-03-15T08:16:56.578Z,94896.39
2019-03-15T08:22:03.053Z,94886.63
2019-03-15T08:24:36.482Z,94883.67
2019-03-15T08:27:02.664Z,94886.00
2019-03-15T08:29:31.061Z,94892.95
2019-03-15T08:32:00.389Z,94882.77
2019-03-15T08:37:04.953Z,94888.17
2019-03-15T08:39:34.313Z,94887.81
2019-03-15T08:42:02.656Z,94897.77
2019-03-15T08:44:32.011Z,94908.99
2019-03-15T08:47:02.327Z,94895.67
2019-03-15T08:49:30.656Z,94893.59
2019-03-15T08:52:03.814Z,94898.77
2019-03-15T08:54:27.343Z,94898.34
2019-03-15T08:56:55.716Z,94892.80
2019-03-15T08:59:24.043Z,94887.73
2019-03-15T09:01:52.409Z,94888.25
2019-03-15T09:07:03.689Z,94894.68
2019-03-15T09:09:31.998Z,94874.59
2019-03-15T09:12:00.380Z,94875.98
2019-03-15T09:14:28.728Z,94867.48
2019-03-15T09:16:57.072Z,94874.81
2019-03-15T09:19:26.343Z,94864.43
2019-03-15T09:21:54.685Z,94872.66
2019-03-15T09:24:24.949Z,94871.80
2019-03-15T09:26:53.292Z,94859.68
2019-03-15T09:29:21.632Z,94858.84
2019-03-15T09:31:50.005Z,94858.17
2019-03-15T09:34:19.307Z,94864.28
2019-03-15T09:36:50.393Z,94865.44
2019-03-15T09:39:16.048Z,94861.61
2019-03-15T09:41:45.295Z,94862.28
2019-03-15T09:44:13.631Z,94868.84
2019-03-15T09:46:42.982Z,94866.92
2019-03-15T09:49:11.323Z,94870.23
2019-03-15T09:51:39.664Z,94862.70
2019-03-15T09:54:08.024Z,94862.63
2019-03-15T09:56:37.313Z,94846.66
2019-03-15T09:59:05.656Z,94842.81
2019-03-15T10:01:35.517Z,94833.95
2019-03-15T10:04:02.356Z,94826.66
2019-03-15T10:06:30.704Z,94822.60
2019-03-15T10:08:59.058Z,94818.56
2019-03-15T10:11:27.396Z,94809.66
2019-03-15T10:13:56.711Z,94812.26
2019-03-15T10:16:25.070Z,94811.52
2019-03-15T10:18:53.420Z,94796.20
2019-03-15T10:21:21.833Z,94802.24
2019-03-15T10:23:50.180Z,94805.94
2019-03-15T10:26:19.041Z,94791.95
2019-03-15T10:28:47.387Z,94795.25
2019-03-15T10:31:16.644Z,94795.37
2019-03-15T10:33:50.295Z,94779.80
2019-03-15T10:36:13.320Z,94779.28
2019-03-15T10:38:41.676Z,94780.75
2019-03-15T10:41:10.030Z,94769.41
2019-03-15T10:43:38.365Z,94765.55
2019-03-15T10:46:08.685Z,94770.51
2019-03-15T10:48:37.996Z,94769.03
2019-03-15T10:51:06.332Z,94774.77
2019-03-15T10:53:34.688Z,94760.78
2019-03-15T10:56:03.036Z,94766.94
2019-03-15T10:58:31.401Z,94753.25
2019-03-15T11:00:59.740Z,94752.34
2019-03-15T11:03:28.127Z,94751.48
2019-03-15T11:05:56.468Z,94757.11
2019-03-15T11:08:24.814Z,94748.73
2019-03-15T11:10:54.177Z,94747.80
2019-03-15T11:13:22.517Z,94752.53
2019-03-15T11:15:51.830Z,94750.59
2019-03-15T11:18:21.144Z,94751.75
2019-03-15T11:20:49.477Z,94748.82
2019-03-15T11:23:17.825Z,94765.56
2019-03-15T11:25:46.179Z,94757.45
2019-03-15T11:28:14.507Z,94777.07
2019-03-15T11:30:43.783Z,94762.41
2019-03-15T11:33:12.127Z,94772.19
2019-03-15T11:35:40.488Z,94766.61
2019-03-15T11:38:08.838Z,94752.80
2019-03-15T11:40:38.129Z,94757.19
2019-03-15T11:43:06.425Z,94759.22
2019-03-15T11:45:35.720Z,94757.86
2019-03-15T11:48:04.581Z,94757.61
2019-03-15T11:50:32.494Z,94757.24
2019-03-15T11:53:00.853Z,94751.30
2019-03-15T11:55:29.225Z,94768.04
2019-03-15T11:57:57.576Z,94755.97
2019-03-15T12:00:25.924Z,94757.38
2019-03-15T12:02:54.282Z,94760.27
2019-03-15T12:05:22.638Z,94757.36
2019-03-15T12:07:50.960Z,94756.13
2019-03-15T12:10:19.302Z,94767.11
2019-03-15T12:12:47.668Z,94746.59
2019-03-15T12:15:19.176Z,94745.11
2019-03-15T12:17:47.536Z,94737.78
2019-03-15T12:20:15.887Z,94736.52
2019-03-15T12:22:44.255Z,94737.34
2019-03-15T12:25:13.526Z,94739.86
2019-03-15T12:27:41.861Z,94732.48
2019-03-15T12:30:13.585Z,94741.28
2019-03-15T12:32:43.929Z,94741.43
2019-03-15T12:35:12.280Z,94739.66
2019-03-15T12:37:40.624Z,94746.52
2019-03-15T12:40:11.510Z,94756.78
2019-03-15T12:42:39.845Z,94747.81
2019-03-15T12:45:09.020Z,94753.89
2019-03-15T12:47:37.332Z,94757.61
2019-03-15T12:50:08.401Z,94754.09
2019-03-15T12:52:46.507Z,94753.36
2019-03-15T12:55:05.171Z,94762.93
2019-03-15T12:57:33.545Z,94759.16
2019-03-15T13:00:01.903Z,94755.41
2019-03-15T13:02:31.220Z,94755.25
2019-03-15T13:05:00.493Z,94743.80
2019-03-15T13:07:28.840Z,94729.23
2019-03-15T13:09:57.180Z,94740.00
2019-03-15T13:12:26.474Z,94755.83
2019-03-15T13:14:54.819Z,94752.31
2019-03-15T13:17:24.516Z,94743.42
2019-03-15T13:19:55.441Z,94753.16
2019-03-15T13:22:22.180Z,94742.04
2019-03-15T13:24:51.745Z,94755.03
2019-03-15T13:27:20.138Z,94743.67
2019-03-15T13:29:48.520Z,94760.91
2019-03-15T13:32:16.860Z,94757.27
2019-03-15T13:34:47.126Z,94740.55
2019-03-15T13:37:15.484Z,94750.28
2019-03-15T13:42:18.154Z,94769.89
2019-03-15T13:47:20.815Z,94776.52
2019-03-15T13:52:23.366Z,94760.60
2019-03-15T13:54:51.776Z,94757.43
2019-03-15T13:57:21.802Z,94758.52
2019-03-15T13:59:49.342Z,94759.79
2019-03-15T14:02:18.594Z,94784.05
2019-03-15T14:04:46.935Z,94757.23
2019-03-15T14:07:15.300Z,94745.78
2019-03-15T14:09:43.642Z,94736.17
2019-03-15T14:12:11.989Z,94753.61
2019-03-15T14:14:41.324Z,94745.55
2019-03-15T14:17:09.697Z,94749.19
2019-03-15T14:19:38.999Z,94752.58
2019-03-15T14:22:07.438Z,94744.14
2019-03-15T14:24:35.772Z,94747.14
2019-03-15T14:27:04.120Z,94756.58
2019-03-15T14:29:32.465Z,94745.86
2019-03-15T14:32:00.809Z,94743.28
2019-03-15T14:34:29.159Z,94748.30
2019-03-15T14:36:57.658Z,94753.50
2019-03-15T14:42:00.332Z,94752.29
2019-03-15T14:44:28.560Z,94778.49
2019-03-15T14:46:56.810Z,94741.95
2019-03-15T14:49:25.165Z,94752.53
2019-03-15T14:51:53.673Z,94755.22
2019-03-15T14:54:22.024Z,94745.85
2019-03-15T14:56:50.376Z,94764.35
2019-03-15T14:59:18.752Z,94772.36
2019-03-15T15:01:47.104Z,94762.78
2019-03-15T15:04:16.362Z,94742.41
2019-03-15T15:06:43.802Z,94747.51
2019-03-15T15:09:12.191Z,94745.22
2019-03-15T15:11:40.574Z,94753.42
2019-03-15T15:14:08.886Z,94730.39
2019-03-15T15:16:38.194Z,94755.58
2019-03-15T15:19:07.435Z,94743.55
2019-03-15T15:21:35.782Z,94749.05
2019-03-15T15:24:04.191Z,94746.55
2019-03-15T15:26:32.556Z,94746.77
2019-03-15T15:29:00.892Z,94752.41
2019-03-15T15:31:29.248Z,94754.83
2019-03-15T15:33:58.992Z,94749.78
2019-03-15T15:36:25.950Z,94752.16
2019-03-15T15:38:54.316Z,94758.53
2019-03-15T15:41:22.678Z,94743.09
2019-03-15T15:43:51.021Z,94763.89
2019-03-15T15:46:19.373Z,94744.13
2019-03-15T15:51:21.949Z,94772.20
2019-03-15T15:53:51.280Z,94749.55
2019-03-15T15:56:19.642Z,94764.25
2019-03-15T15:58:48.033Z,94763.83
2019-03-15T16:01:16.396Z,94760.77
2019-03-15T16:06:21.889Z,94753.09
2019-03-15T16:08:50.238Z,94759.55
2019-03-15T16:11:18.584Z,94750.89
2019-03-15T16:13:47.987Z,94800.59
2019-03-15T16:16:19.533Z,94772.45
2019-03-15T16:18:47.913Z,94780.55
2019-03-15T16:21:16.263Z,94783.72
2019-03-15T16:23:44.604Z,94764.56
2019-03-15T16:26:12.964Z,94759.02
2019-03-15T16:31:15.590Z,94781.00
2019-03-15T16:33:43.960Z,94787.09
2019-03-15T16:36:12.318Z,94794.33
2019-03-15T16:38:42.777Z,94781.83
2019-03-15T16:41:11.129Z,94790.62
2019-03-15T16:43:39.546Z,94786.96
2019-03-15T16:46:08.177Z,94802.91
2019-03-15T16:48:36.516Z,94791.16
2019-03-15T16:53:39.141Z,94790.16
2019-03-15T16:56:07.588Z,94779.87
2019-03-15T16:58:45.514Z,94790.48
2019-03-15T17:01:04.302Z,94804.53
2019-03-15T17:03:32.636Z,94798.16
2019-03-15T17:08:35.234Z,94829.91
2019-03-15T17:11:03.562Z,94830.53
2019-03-15T17:16:06.304Z,94833.17
2019-03-15T17:21:08.765Z,94845.80
2019-03-15T17:23:38.229Z,94847.73
2019-03-15T17:26:10.480Z,94843.30
2019-03-15T17:28:39.811Z,94843.86
2019-03-15T17:33:42.410Z,94855.64
2019-03-15T17:36:10.749Z,94850.53
2019-03-15T17:38:40.201Z,94842.63
2019-03-15T17:43:43.827Z,94852.29
2019-03-15T17:46:13.011Z,94859.69
2019-03-15T17:48:40.540Z,94866.26
2019-03-15T17:51:09.884Z,94882.85
2019-03-15T17:53:39.187Z,94884.30
2019-03-15T17:56:08.483Z,94884.55
2019-03-15T17:58:36.862Z,94906.81
2019-03-15T18:01:05.210Z,94865.77
2019-03-15T18:03:35.475Z,94889.86
2019-03-15T18:06:04.720Z,94879.02
2019-03-15T18:08:33.065Z,94874.33
2019-03-15T18:11:01.401Z,94882.30
2019-03-15T18:13:31.679Z,94885.05
2019-03-15T18:16:00.103Z,94892.89
2019-03-15T18:18:28.500Z,94894.87
2019-03-15T18:20:56.841Z,94900.22
2019-03-15T18:23:25.224Z,94895.78
2019-03-15T18:25:53.733Z,94881.38
2019-03-15T18:28:22.089Z,94866.05
2019-03-15T18:30:50.432Z,94894.49
2019-03-15T18:33:19.002Z,94893.88
2019-03-15T18:35:47.314Z,94900.34
2019-03-15T18:38:21.516Z,94887.58
2019-03-15T18:40:49.869Z,94883.38
2019-03-15T18:43:18.221Z,94896.84
2019-03-15T18:45:49.672Z,94882.98
2019-03-15T18:48:18.034Z,94878.00
2019-03-15T18:50:46.373Z,94886.02
2019-03-15T18:53:15.652Z,94877.79
2019-03-15T18:55:44.032Z,94909.53
2019-03-15T18:58:13.336Z,94887.94
2019-03-15T19:00:43.670Z,94884.55
2019-03-15T19:05:50.274Z,94912.99
2019-03-15T19:08:18.629Z,94906.80
2019-03-15T19:10:47.122Z,94905.62
2019-03-15T19:13:15.498Z,94885.19
2019-03-15T19:15:44.069Z,94912.77
2019-03-15T19:18:12.311Z,94881.15
2019-03-15T19:20:40.755Z,94874.71
2019-03-15T19:23:09.020Z,94906.77
2019-03-15T19:25:37.434Z,94880.97
2019-03-15T19:28:05.826Z,94897.50
2019-03-15T19:30:36.262Z,94895.80
2019-03-15T19:35:39.739Z,94894.52
2019-03-15T19:38:08.146Z,94911.05
2019-03-15T19:40:36.492Z,94960.06
2019-03-15T19:43:04.948Z,94899.48
2019-03-15T19:45:33.263Z,94916.91
2019-03-15T19:48:01.609Z,94901.06
2019-03-15T19:50:30.085Z,94907.03
2019-03-15T19:52:58.446Z,94898.19
2019-03-15T19:58:03.090Z,94911.86
2019-03-15T20:00:31.458Z,94913.67
2019-03-15T20:02:59.792Z,94879.43
2019-03-15T20:05:28.149Z,94896.02
2019-03-15T20:07:56.511Z,94938.65
2019-03-15T20:10:24.868Z,94906.31
2019-03-15T20:12:53.239Z,94914.21
2019-03-15T20:15:21.560Z,94906.56
2019-03-15T20:17:49.914Z,94900.09
2019-03-15T20:20:19.242Z,94918.85
2019-03-15T20:22:47.573Z,94903.24
2019-03-15T20:25:15.935Z,94924.13
2019-03-15T20:27:45.250Z,94903.84
2019-03-15T20:32:48.774Z,94895.87
2019-03-15T20:35:17.143Z,94919.41
2019-03-15T20:40:19.720Z,94919.70
2019-03-15T20:42:48.946Z,94896.24
2019-03-15T20:45:23.756Z,94931.91
2019-03-15T20:47:52.138Z,94911.09
2019-03-15T20:50:21.466Z,94929.98
2019-03-15T20:55:28.532Z,94949.27
2019-03-15T20:57:53.896Z,94917.52
2019-03-15T21:00:34.672Z,94935.63
2019-03-15T21:02:51.640Z,94911.02
2019-03-15T21:05:20.147Z,94909.75
2019-03-15T21:07:49.376Z,94896.64
2019-03-15T21:10:17.723Z,94903.82
2019-03-15T21:12:46.106Z,94925.14
2019-03-15T21:15:14.452Z,94923.67
2019-03-15T21:17:42.787Z,94930.86
2019-03-15T21:22:48.460Z,94935.99
2019-03-15T21:25:16.799Z,94960.20
2019-03-15T21:27:53.651Z,94937.77
2019-03-15T21:30:18.856Z,94940.88
2019-03-15T21:32:47.203Z,94925.86
2019-03-15T21:35:15.575Z,94973.08
2019-03-15T21:37:43.959Z,94961.63
2019-03-15T21:40:12.973Z,94942.91
2019-03-15T21:42:41.326Z,94968.09
2019-03-15T21:45:09.685Z,94942.12
2019-03-15T21:47:38.014Z,94954.44
2019-03-15T21:50:08.285Z,94953.97
2019-03-15T21:52:37.529Z,94970.91
2019-03-15T21:55:09.830Z,94962.41
2019-03-15T22:00:15.229Z,95000.14
2019-03-15T22:02:43.597Z,94973.14
2019-03-15T22:05:11.952Z,94981.55
2019-03-15T22:07:40.272Z,94962.72
2019-03-15T22:10:12.260Z,94966.70
2019-03-15T22:12:40.598Z,94970.95
2019-03-15T22:15:08.948Z,94976.45
2019-03-15T22:17:37.402Z,95008.56
2019-03-15T22:20:13.164Z,94990.30
2019-03-15T22:22:41.547Z,94994.17
2019-03-15T22:25:09.875Z,94990.08
2019-03-15T22:27:39.148Z,94982.94
2019-03-15T22:30:14.472Z,94996.02
2019-03-15T22:32:42.867Z,95015.03
2019-03-15T22:35:11.194Z,95014.89
2019-03-15T22:37:39.535Z,94989.97
2019-03-15T22:40:08.798Z,95013.42
2019-03-15T22:42:37.152Z,94988.21
2019-03-15T22:47:39.728Z,95003.56
2019-03-15T22:50:08.060Z,95018.61
2019-03-15T22:52:36.408Z,95005.66
2019-03-15T22:55:04.907Z,95007.58
2019-03-15T22:57:34.203Z,95023.77
2019-03-15T23:00:03.490Z,95011.94
2019-03-15T23:02:31.905Z,95017.25
2019-03-15T23:07:36.463Z,95013.48
2019-03-15T23:10:04.824Z,95003.67
2019-03-15T23:12:34.131Z,95035.07
2019-03-15T23:17:36.753Z,95038.33
2019-03-15T23:20:05.944Z,95030.14
2019-03-15T23:22:34.269Z,95034.98
2019-03-15T23:25:02.604Z,95045.78
2019-03-15T23:27:30.943Z,95038.95
2019-03-15T23:30:01.179Z,95028.98
2019-03-15T23:32:29.516Z,95005.30
2019-03-15T23:34:58.988Z,95018.66
2019-03-15T23:37:28.244Z,95052.28
2019-03-15T23:39:56.660Z,95033.55
2019-03-15T23:42:25.162Z,94998.28
2019-03-15T23:44:53.544Z,95012.25
2019-03-15T23:47:21.871Z,95001.58
2019-03-15T23:49:50.196Z,95016.34
2019-03-15T23:52:18.525Z,95024.94
2019-03-15T23:54:46.874Z,95005.55
2019-03-15T23:57:15.206Z,95029.89
